createdAt,value
2022-08-11T00:02:34.585Z,2.40
2022-08-11T00:05:11.035Z,2.00
2022-08-11T00:07:45.491Z,2.50
2022-08-11T00:10:16.295Z,2.53
2022-08-11T00:12:52.346Z,2.60
2022-08-11T00:15:21.173Z,1.67
2022-08-11T00:17:50.104Z,2.50
2022-08-11T00:20:19.876Z,2.60
2022-08-11T00:22:50.000Z,2.33
2022-08-11T00:25:20.913Z,2.27
2022-08-11T00:27:50.584Z,2.93
2022-08-11T00:30:19.405Z,2.97
2022-08-11T00:32:56.069Z,3.33
2022-08-11T00:35:54.680Z,2.73
2022-08-11T00:38:18.240Z,2.37
2022-08-11T00:40:54.219Z,2.70
2022-08-11T00:43:34.671Z,2.43
2022-08-11T00:46:13.878Z,2.50
2022-08-11T00:48:51.236Z,2.33
2022-08-11T00:52:03.887Z,2.73
2022-08-11T00:54:44.985Z,2.60
2022-08-11T00:57:54.637Z,2.23
2022-08-11T01:00:25.720Z,2.33
2022-08-11T01:03:13.084Z,2.50
2022-08-11T01:06:00.997Z,2.70
2022-08-11T01:09:21.921Z,2.57
2022-08-11T01:12:27.306Z,2.40
2022-08-11T01:15:25.645Z,2.50
2022-08-11T01:18:42.597Z,2.30
2022-08-11T01:21:38.367Z,1.73
2022-08-11T01:24:51.308Z,2.00
2022-08-11T01:27:49.910Z,2.50
2022-08-11T01:30:56.557Z,2.67
2022-08-11T01:34:21.861Z,2.67
2022-08-11T01:37:19.326Z,3.13
2022-08-11T01:40:22.359Z,2.70
2022-08-11T01:44:01.856Z,2.47
2022-08-11T01:46:34.746Z,2.80
2022-08-11T01:50:05.145Z,2.70
2022-08-11T01:52:34.598Z,2.73
2022-08-11T01:55:15.955Z,3.27
2022-08-11T01:57:49.755Z,2.80
2022-08-11T02:00:21.810Z,2.60
2022-08-11T02:02:59.597Z,2.73
2022-08-11T02:05:48.126Z,3.00
2022-08-11T02:08:33.605Z,2.63
2022-08-11T02:11:30.594Z,3.00
2022-08-11T02:14:08.209Z,3.33
2022-08-11T02:16:49.310Z,2.30
2022-08-11T02:19:45.322Z,2.80
2022-08-11T02:22:41.984Z,3.50
2022-08-11T02:25:23.065Z,2.90
2022-08-11T02:27:56.288Z,3.23
2022-08-11T02:30:27.105Z,3.07
2022-08-11T02:33:22.504Z,2.43
2022-08-11T02:35:59.622Z,3.10
2022-08-11T02:38:33.925Z,2.90
2022-08-11T02:41:28.536Z,2.60
2022-08-11T02:44:08.496Z,2.90
2022-08-11T02:46:48.632Z,2.67
2022-08-11T02:49:44.996Z,3.10
2022-08-11T02:52:25.258Z,2.90
2022-08-11T02:55:03.629Z,2.70
2022-08-11T02:57:40.105Z,3.60
2022-08-11T03:00:11.737Z,3.70
2022-08-11T03:02:51.421Z,3.33
2022-08-11T03:05:48.879Z,3.20
2022-08-11T03:08:32.456Z,2.70
2022-08-11T03:11:23.832Z,2.53
2022-08-11T03:14:33.567Z,2.93
2022-08-11T03:17:07.448Z,3.20
2022-08-11T03:19:45.472Z,3.07
2022-08-11T03:22:22.189Z,3.17
2022-08-11T03:25:01.872Z,2.70
2022-08-11T03:27:47.599Z,2.97
2022-08-11T03:30:20.324Z,3.00
2022-08-11T03:33:19.121Z,2.80
2022-08-11T03:35:59.736Z,3.53
2022-08-11T03:38:32.226Z,3.23
2022-08-11T03:42:02.329Z,3.30
2022-08-11T03:44:33.643Z,3.50
2022-08-11T03:47:13.798Z,3.50
2022-08-11T03:50:04.805Z,3.10
2022-08-11T03:52:49.456Z,3.00
2022-08-11T03:55:28.228Z,2.87
2022-08-11T03:58:35.875Z,3.60
2022-08-11T04:01:41.921Z,3.50
2022-08-11T04:04:51.349Z,2.87
2022-08-11T04:08:08.978Z,3.63
2022-08-11T04:11:21.869Z,3.33
2022-08-11T04:14:50.622Z,2.93
2022-08-11T04:17:45.124Z,3.50
2022-08-11T04:20:50.704Z,3.10
2022-08-11T04:24:36.439Z,3.80
2022-08-11T04:26:57.443Z,5.60
2022-08-11T04:30:02.977Z,3.43
2022-08-11T04:33:09.275Z,3.33
2022-08-11T04:35:50.975Z,4.20
2022-08-11T04:38:47.142Z,3.40
2022-08-11T04:42:13.722Z,3.30
2022-08-11T04:45:26.160Z,3.47
2022-08-11T04:48:27.389Z,4.07
2022-08-11T04:51:50.527Z,3.27
2022-08-11T04:54:47.806Z,3.53
2022-08-11T04:57:41.014Z,3.20
2022-08-11T05:00:29.212Z,3.17
2022-08-11T05:03:34.406Z,3.70
2022-08-11T05:06:30.881Z,3.90
2022-08-11T05:09:28.568Z,3.53
2022-08-11T05:12:31.206Z,3.67
2022-08-11T05:15:19.367Z,3.60
2022-08-11T05:18:14.527Z,3.93
2022-08-11T05:21:07.705Z,3.53
2022-08-11T05:23:58.212Z,3.60
2022-08-11T05:26:49.299Z,3.30
2022-08-11T05:29:58.518Z,3.50
2022-08-11T05:32:49.335Z,3.30
2022-08-11T05:36:01.449Z,4.00
2022-08-11T05:38:37.591Z,3.67
2022-08-11T05:41:24.943Z,3.53
2022-08-11T05:44:19.788Z,3.10
2022-08-11T05:47:08.458Z,4.07
2022-08-11T05:49:55.145Z,3.77
2022-08-11T05:52:47.036Z,3.10
2022-08-11T05:55:35.913Z,3.00
2022-08-11T05:58:22.672Z,3.30
2022-08-11T06:00:54.153Z,3.33
2022-08-11T06:03:27.940Z,3.50
2022-08-11T06:05:58.067Z,2.77
2022-08-11T06:08:36.144Z,3.20
2022-08-11T06:11:06.880Z,3.73
2022-08-11T06:13:35.878Z,3.80
2022-08-11T06:16:07.214Z,2.80
2022-08-11T06:18:36.203Z,3.20
2022-08-11T06:21:11.031Z,3.27
2022-08-11T06:23:42.386Z,3.57
2022-08-11T06:26:11.254Z,2.93
2022-08-11T06:28:45.146Z,3.70
2022-08-11T06:31:17.657Z,3.77
2022-08-11T06:33:58.249Z,3.40
2022-08-11T06:36:35.371Z,3.03
2022-08-11T06:39:16.704Z,3.67
2022-08-11T06:41:49.574Z,3.13
2022-08-11T06:44:25.335Z,3.80
2022-08-11T06:47:01.031Z,3.40
2022-08-11T06:49:53.680Z,3.27
2022-08-11T06:52:34.547Z,3.07
2022-08-11T06:55:56.074Z,3.23
2022-08-11T06:58:15.745Z,3.10
2022-08-11T07:00:44.931Z,3.20
2022-08-11T07:03:19.052Z,3.20
2022-08-11T07:05:50.220Z,3.23
2022-08-11T07:08:55.278Z,2.80
2022-08-11T07:12:08.840Z,3.27
2022-08-11T07:15:00.509Z,2.93
2022-08-11T07:17:31.676Z,3.10
2022-08-11T07:20:21.524Z,2.80
2022-08-11T07:23:13.703Z,2.50
2022-08-11T07:26:02.202Z,3.10
2022-08-11T07:28:49.428Z,3.00
2022-08-11T07:31:26.983Z,3.23
2022-08-11T07:34:12.094Z,3.33
2022-08-11T07:36:50.624Z,2.63
2022-08-11T07:39:22.388Z,2.60
2022-08-11T07:41:52.282Z,3.00
2022-08-11T07:44:21.067Z,2.87
2022-08-11T07:47:09.332Z,2.80
2022-08-11T07:49:56.905Z,3.17
2022-08-11T07:52:34.061Z,2.57
2022-08-11T07:55:04.193Z,2.80
2022-08-11T07:58:14.583Z,2.63
2022-08-11T08:01:01.068Z,3.13
2022-08-11T08:03:54.624Z,2.10
2022-08-11T08:06:41.613Z,2.87
2022-08-11T08:09:30.847Z,2.77
2022-08-11T08:12:20.693Z,2.50
2022-08-11T08:15:06.649Z,2.23
2022-08-11T08:18:20.477Z,2.20
2022-08-11T08:20:47.876Z,2.70
2022-08-11T08:23:17.430Z,2.63
2022-08-11T08:25:48.279Z,2.90
2022-08-11T08:28:18.822Z,2.97
2022-08-11T08:30:50.429Z,2.70
2022-08-11T08:33:22.802Z,2.60
2022-08-11T08:36:11.403Z,2.40
2022-08-11T08:38:42.872Z,3.10
2022-08-11T08:41:16.616Z,2.80
2022-08-11T08:43:48.791Z,2.73
2022-08-11T08:46:21.744Z,2.47
2022-08-11T08:48:51.265Z,2.70
2022-08-11T08:52:01.069Z,2.73
2022-08-11T08:54:28.177Z,2.50
2022-08-11T08:56:58.429Z,2.90
2022-08-11T08:59:47.993Z,2.10
2022-08-11T09:02:17.242Z,2.67
2022-08-11T09:04:46.932Z,2.43
2022-08-11T09:07:17.793Z,2.77
2022-08-11T09:09:48.410Z,1.87
2022-08-11T09:12:38.460Z,2.60
2022-08-11T09:15:10.686Z,2.30
2022-08-11T09:17:44.591Z,2.50
2022-08-11T09:20:16.113Z,2.27
2022-08-11T09:26:11.447Z,2.77
2022-08-11T09:28:42.992Z,2.70
2022-08-11T09:31:13.503Z,2.63
2022-08-11T09:33:42.775Z,2.87
2022-08-11T09:36:31.058Z,2.70
2022-08-11T09:39:18.547Z,2.30
2022-08-11T09:42:01.322Z,2.33
2022-08-11T09:44:49.974Z,2.13
2022-08-11T09:47:24.633Z,1.80
2022-08-11T09:50:00.047Z,2.00
2022-08-11T09:52:30.831Z,2.37
2022-08-11T09:54:59.885Z,1.97
2022-08-11T09:57:45.293Z,1.70
2022-08-11T10:00:16.086Z,1.67
2022-08-11T10:02:47.337Z,2.00
2022-08-11T10:05:36.382Z,1.50
2022-08-11T10:08:05.810Z,1.63
2022-08-11T10:10:37.392Z,1.50
2022-08-11T10:14:31.321Z,1.50
2022-08-11T10:16:15.342Z,1.23
2022-08-11T10:18:53.251Z,1.37
2022-08-11T10:21:37.535Z,1.67
2022-08-11T10:24:25.975Z,1.70
2022-08-11T10:27:13.666Z,1.43
2022-08-11T10:30:00.401Z,1.30
2022-08-11T10:32:59.302Z,1.67
2022-08-11T10:35:29.404Z,1.30
2022-08-11T10:38:06.113Z,1.60
2022-08-11T10:40:40.062Z,1.10
2022-08-11T10:43:13.529Z,1.63
2022-08-11T10:46:03.238Z,1.40
2022-08-11T10:48:37.923Z,1.50
2022-08-11T10:51:49.935Z,1.70
2022-08-11T10:54:24.700Z,1.67
2022-08-11T10:57:12.923Z,1.47
2022-08-11T10:59:42.770Z,1.67
2022-08-11T11:02:15.364Z,1.50
2022-08-11T11:05:03.609Z,1.90
2022-08-11T11:07:44.067Z,1.50
2022-08-11T11:10:12.965Z,1.80
2022-08-11T11:13:02.638Z,1.67
2022-08-11T11:15:50.134Z,1.87
2022-08-11T11:18:28.729Z,1.70
2022-08-11T11:21:04.524Z,1.60
2022-08-11T11:23:39.481Z,1.57
2022-08-11T11:26:27.121Z,1.90
2022-08-11T11:29:22.391Z,1.60
2022-08-11T11:31:57.089Z,1.97
2022-08-11T11:34:53.220Z,1.77
2022-08-11T11:37:25.009Z,1.70
2022-08-11T11:39:55.386Z,1.93
2022-08-11T11:42:24.230Z,1.47
2022-08-11T11:44:55.750Z,1.67
2022-08-11T11:47:24.730Z,1.50
2022-08-11T11:49:54.334Z,1.70
2022-08-11T11:52:24.856Z,1.70
2022-08-11T11:54:56.493Z,1.47
2022-08-11T11:57:58.636Z,2.00
2022-08-11T12:00:45.419Z,1.87
2022-08-11T12:03:14.367Z,1.80
2022-08-11T12:05:44.954Z,1.90
2022-08-11T12:08:16.417Z,1.73
2022-08-11T12:10:46.933Z,1.93
2022-08-11T12:13:33.795Z,1.43
2022-08-11T12:16:34.970Z,1.70
2022-08-11T12:18:54.384Z,1.53
2022-08-11T12:21:24.444Z,1.90
2022-08-11T12:24:13.392Z,1.73
2022-08-11T12:27:16.744Z,1.43
2022-08-11T12:29:54.521Z,1.53
2022-08-11T12:32:25.348Z,1.43
2022-08-11T12:34:53.942Z,1.70
2022-08-11T12:37:30.113Z,1.80
2022-08-11T12:40:42.693Z,1.47
2022-08-11T12:43:37.113Z,1.87
2022-08-11T12:46:10.088Z,1.60
2022-08-11T12:49:03.270Z,1.80
2022-08-11T12:52:13.915Z,1.47
2022-08-11T12:54:51.539Z,1.70
2022-08-11T12:57:56.392Z,1.90
2022-08-11T13:00:43.249Z,1.80
2022-08-11T13:03:31.661Z,1.83
2022-08-11T13:06:02.546Z,1.60
2022-08-11T13:08:36.573Z,1.20
2022-08-11T13:11:22.927Z,1.70
2022-08-11T13:13:57.768Z,1.60
2022-08-11T13:16:29.882Z,1.50
2022-08-11T13:19:00.762Z,1.50
2022-08-11T13:21:30.296Z,1.27
2022-08-11T13:24:01.473Z,1.40
2022-08-11T13:26:48.594Z,1.57
2022-08-11T13:29:27.417Z,1.33
2022-08-11T13:31:58.426Z,2.13
2022-08-11T13:34:28.355Z,1.80
2022-08-11T13:36:59.321Z,1.40
2022-08-11T13:39:29.603Z,1.60
2022-08-11T13:42:00.468Z,1.60
2022-08-11T13:44:32.307Z,1.40
2022-08-11T13:47:05.041Z,1.63
2022-08-11T13:49:36.300Z,1.30
2022-08-11T13:52:12.823Z,1.40
2022-08-11T13:54:42.539Z,1.50
2022-08-11T13:58:08.272Z,1.50
2022-08-11T14:00:23.514Z,1.37
2022-08-11T14:02:57.136Z,1.33
2022-08-11T14:05:29.476Z,1.70
2022-08-11T14:08:02.152Z,1.63
2022-08-11T14:10:34.039Z,1.53
2022-08-11T14:13:25.363Z,1.20
2022-08-11T14:15:57.298Z,1.50
2022-08-11T14:18:29.815Z,1.50
2022-08-11T14:21:19.022Z,1.37
2022-08-11T14:23:50.384Z,2.10
2022-08-11T14:26:26.873Z,2.20
2022-08-11T14:28:59.196Z,1.43
2022-08-11T14:31:30.943Z,1.77
2022-08-11T14:34:02.767Z,1.33
2022-08-11T14:36:34.940Z,1.43
2022-08-11T14:39:05.736Z,1.83
2022-08-11T14:42:11.521Z,1.60
2022-08-11T14:45:12.315Z,1.30
2022-08-11T14:47:45.473Z,1.37
2022-08-11T14:50:18.011Z,1.23
2022-08-11T14:52:51.038Z,1.23
2022-08-11T14:55:38.832Z,1.40
2022-08-11T14:58:09.584Z,1.40
2022-08-11T15:00:38.552Z,1.77
2022-08-11T15:03:11.248Z,1.17
2022-08-11T15:05:54.244Z,1.13
2022-08-11T15:08:42.285Z,1.03
2022-08-11T15:11:32.467Z,1.27
2022-08-11T15:14:03.568Z,1.23
2022-08-11T15:16:49.710Z,1.40
2022-08-11T15:19:21.433Z,1.40
2022-08-11T15:22:08.082Z,1.47
2022-08-11T15:24:36.848Z,1.60
2022-08-11T15:27:28.174Z,1.40
2022-08-11T15:30:20.931Z,1.20
2022-08-11T15:33:20.002Z,0.90
2022-08-11T15:36:07.822Z,1.47
2022-08-11T15:38:41.056Z,1.17
2022-08-11T15:41:29.562Z,1.47
2022-08-11T15:44:15.666Z,1.10
2022-08-11T15:46:46.657Z,1.70
2022-08-11T15:49:21.952Z,1.67
2022-08-11T15:52:01.912Z,1.20
2022-08-11T15:54:33.385Z,1.57
2022-08-11T15:57:03.449Z,1.50
2022-08-11T15:59:52.414Z,1.43
2022-08-11T16:02:41.052Z,1.40
2022-08-11T16:05:14.301Z,1.50
2022-08-11T16:08:05.185Z,1.50
2022-08-11T16:10:35.746Z,1.53
2022-08-11T16:13:24.424Z,1.23
2022-08-11T16:16:13.110Z,1.10
2022-08-11T16:18:51.772Z,1.77
2022-08-11T16:21:34.069Z,1.40
2022-08-11T16:24:08.239Z,1.50
2022-08-11T16:27:07.470Z,1.40
2022-08-11T16:29:31.674Z,1.63
2022-08-11T16:32:20.744Z,1.17
2022-08-11T16:35:16.618Z,1.20
2022-08-11T16:38:03.320Z,1.57
2022-08-11T16:40:34.516Z,1.50
2022-08-11T16:43:22.035Z,1.40
2022-08-11T16:46:08.800Z,1.70
2022-08-11T16:48:39.112Z,1.50
2022-08-11T16:51:08.331Z,1.40
2022-08-11T16:54:03.265Z,1.50
2022-08-11T16:56:32.781Z,1.40
2022-08-11T16:59:15.874Z,1.63
2022-08-11T17:01:48.779Z,1.23
2022-08-11T17:04:39.927Z,1.40
2022-08-11T17:07:40.451Z,1.80
2022-08-11T17:10:50.936Z,1.40
2022-08-11T17:13:28.085Z,1.40
2022-08-11T17:16:12.842Z,1.20
2022-08-11T17:18:47.005Z,1.23
2022-08-11T17:21:21.185Z,2.13
2022-08-11T17:23:52.798Z,1.20
2022-08-11T17:26:51.571Z,1.53
2022-08-11T17:29:25.619Z,1.20
2022-08-11T17:32:13.102Z,1.37
2022-08-11T17:35:01.066Z,1.30
2022-08-11T17:37:31.197Z,1.17
2022-08-11T17:40:01.120Z,1.20
2022-08-11T17:42:50.120Z,1.13
2022-08-11T17:45:38.204Z,1.50
2022-08-11T17:48:25.127Z,1.50
2022-08-11T17:50:55.161Z,1.50
2022-08-11T17:54:10.062Z,0.90
2022-08-11T17:56:51.402Z,1.33
2022-08-11T17:59:37.982Z,1.30
2022-08-11T18:02:22.198Z,1.50
2022-08-11T18:05:12.243Z,1.20
2022-08-11T18:08:00.175Z,1.30
2022-08-11T18:10:48.942Z,1.47
2022-08-11T18:13:36.480Z,1.70
2022-08-11T18:16:22.199Z,1.37
2022-08-11T18:19:09.597Z,1.23
2022-08-11T18:22:07.840Z,1.47
2022-08-11T18:25:05.576Z,1.13
2022-08-11T18:27:54.159Z,2.23
2022-08-11T18:30:40.339Z,1.30
2022-08-11T18:36:40.233Z,2.03
2022-08-11T18:39:30.697Z,1.00
2022-08-11T18:42:29.819Z,1.17
2022-08-11T18:45:20.173Z,1.20
2022-08-11T18:48:09.268Z,1.60
2022-08-11T18:51:30.110Z,1.37
2022-08-11T18:54:08.907Z,1.43
2022-08-11T18:56:55.250Z,1.50
2022-08-11T18:59:44.601Z,1.27
2022-08-11T19:02:33.620Z,1.73
2022-08-11T19:06:35.889Z,1.30
2022-08-11T19:08:47.542Z,1.60
2022-08-11T19:11:42.847Z,1.30
2022-08-11T19:14:31.979Z,1.47
2022-08-11T19:17:44.555Z,1.33
2022-08-11T19:20:29.532Z,1.53
2022-08-11T19:23:16.609Z,1.80
2022-08-11T19:26:03.130Z,1.40
2022-08-11T19:28:51.807Z,1.50
2022-08-11T19:31:42.488Z,1.37
2022-08-11T19:34:31.941Z,1.33
2022-08-11T19:37:22.045Z,1.57
2022-08-11T19:40:11.326Z,1.50
2022-08-11T19:42:59.035Z,1.47
2022-08-11T19:45:52.521Z,1.80
2022-08-11T19:48:40.894Z,1.50
2022-08-11T19:51:28.374Z,1.57
2022-08-11T19:54:14.948Z,1.50
2022-08-11T19:57:01.644Z,1.53
2022-08-11T19:59:48.094Z,1.37
2022-08-11T20:02:35.037Z,1.43
2022-08-11T20:05:20.782Z,1.10
2022-08-11T20:08:07.916Z,1.83
2022-08-11T20:10:55.276Z,1.63
2022-08-11T20:13:43.784Z,2.20
2022-08-11T20:16:31.355Z,1.70
2022-08-11T20:19:20.174Z,2.20
2022-08-11T20:22:14.189Z,2.00
2022-08-11T20:25:01.050Z,1.77
2022-08-11T20:27:46.882Z,1.93
2022-08-11T20:30:33.084Z,1.50
2022-08-11T20:33:19.574Z,1.47
2022-08-11T20:36:08.909Z,1.90
2022-08-11T20:38:56.515Z,1.63
2022-08-11T20:41:49.174Z,1.53
2022-08-11T20:44:44.732Z,1.60
2022-08-11T20:47:32.573Z,1.90
2022-08-11T20:50:39.028Z,1.90
2022-08-11T20:53:27.317Z,1.70
2022-08-11T20:56:16.681Z,1.80
2022-08-11T20:59:22.092Z,1.80
2022-08-11T21:02:10.508Z,1.27
2022-08-11T21:05:00.318Z,1.40
2022-08-11T21:07:56.700Z,1.50
2022-08-11T21:10:51.168Z,1.40
2022-08-11T21:13:40.518Z,1.77
2022-08-11T21:16:28.433Z,1.37
2022-08-11T21:19:55.121Z,1.47
2022-08-11T21:22:27.811Z,1.67
2022-08-11T21:25:16.384Z,2.00
2022-08-11T21:28:04.980Z,2.00
2022-08-11T21:30:56.340Z,1.80
2022-08-11T21:33:45.811Z,1.87
2022-08-11T21:36:32.741Z,1.53
2022-08-11T21:39:20.442Z,1.63
2022-08-11T21:42:12.316Z,1.60
2022-08-11T21:45:00.942Z,2.20
2022-08-11T21:47:48.084Z,1.73
2022-08-11T21:50:34.304Z,1.67
2022-08-11T21:53:21.078Z,1.63
2022-08-11T21:56:08.173Z,1.80
2022-08-11T21:58:55.160Z,1.53
2022-08-11T22:01:43.047Z,1.73
2022-08-11T22:04:30.311Z,1.63
2022-08-11T22:07:17.776Z,1.80
2022-08-11T22:10:36.958Z,2.10
2022-08-11T22:13:10.120Z,1.60
2022-08-11T22:15:56.667Z,1.67
2022-08-11T22:18:44.573Z,2.00
2022-08-11T22:22:02.910Z,2.03
2022-08-11T22:24:36.755Z,1.43
2022-08-11T22:27:23.135Z,1.83
2022-08-11T22:30:09.030Z,2.10
2022-08-11T22:32:55.410Z,1.67
2022-08-11T22:35:42.999Z,1.60
2022-08-11T22:38:28.859Z,2.00
2022-08-11T22:41:14.535Z,1.83
2022-08-11T22:43:59.993Z,1.63
2022-08-11T22:46:48.182Z,2.43
2022-08-11T22:49:42.559Z,2.00
2022-08-11T22:52:43.170Z,1.77
2022-08-11T22:55:29.758Z,1.70
2022-08-11T22:58:15.776Z,1.73
2022-08-11T23:01:01.826Z,1.60
2022-08-11T23:03:47.831Z,1.47
2022-08-11T23:06:34.127Z,2.17
2022-08-11T23:09:22.346Z,2.27
2022-08-11T23:12:10.224Z,1.60
2022-08-11T23:14:58.467Z,2.10
2022-08-11T23:17:44.928Z,1.90
2022-08-11T23:20:44.767Z,1.83
2022-08-11T23:23:32.982Z,2.80
2022-08-11T23:26:21.768Z,2.10
2022-08-11T23:29:07.713Z,2.37
2022-08-11T23:31:55.015Z,2.00
2022-08-11T23:35:04.531Z,2.07
2022-08-11T23:37:49.207Z,1.80
2022-08-11T23:40:34.611Z,2.03
2022-08-11T23:43:22.488Z,1.90
2022-08-11T23:46:08.364Z,2.17
2022-08-11T23:48:55.340Z,1.60
2022-08-11T23:51:41.725Z,2.30
2022-08-11T23:54:32.650Z,2.33
2022-08-11T23:57:24.185Z,2.30
